Grant Grove, CA (93633)

8:26 AM PDT on October 02, 2014 (GMT -0700)
RAWS PINEHURST CA US | Change Station
CLOSE
Current Station
Personal Weather Station
Location: Miramonte, CA
Elevation: 4060 ft
Nearby Weather Stations
Active Advisory: Fire Weather Watch

Elev 4060 ft 36.70 °N, 119.02 °W | Updated 28 minutes ago

Clear
Clear
56 °F
Feels Like 56 °F
N
4
Wind Variable Wind from SW
Gusts 9.0 mph

Today
High -- | Low -- °F
--% Chance of Precip.
Yesterday
High -- | Low -- °F
Precip. -- in
6:52 AM 6:37 PM
First Quarter, 59% visible
Pressure 30.19 in
Visibility 10.0 miles
Clouds Clear
Dew Point 38 °F
Humidity 50%
Rainfall 0.00 in
Snow Depth 0 in , 1 in , 1 in
UV 1 out of 12
Pollen 5.40 out of 12
Air Quality Not available.
Flu Activity Not available.
METAR KBIH 021456Z AUTO 30003KT 10SM CLR 09/M05 A3025 RMK AO2 SLP221 T00891050 53018

More Conditions Fewer Conditions

Pressure 30.19 in
Visibility 10.0 miles
Clouds Clear
Dew Point 38 °F
Humidity 50%
Rainfall 0.00 in
Snow Depth 0 in , 1 in , 1 in
UV 1 out of 12
Pollen 5.40 out of 12
Air Quality Not available.
Flu Activity Not available.
METAR KBIH 021456Z AUTO 30003KT 10SM CLR 09/M05 A3025 RMK AO2 SLP221 T00891050 53018

More Conditions Fewer Conditions

10-Day Weather Forecast

Almanac

Astronomy

Oct. 02, 2014 Rise Set
Actual Time 6:52 AM PDT 6:37 PM PDT
Civil Twilight 6:26 AM PDT 7:03 PM PDT
Nautical Twilight 5:56 AM PDT 7:33 PM PDT
Astronomical Twilight 5:26 AM PDT 8:03 PM PDT
Moon 2:40 PM PDT 12:22 AM PDT
Length of Visible Light 12h 37m
Length of Day
11h 45m
Tomorrow will be 2m 20s shorter.
First Quarter, 59% of the Moon is Illuminated
Today
First Quarter
Oct 8
Full
Oct 15
Last Quarter
Oct 23
New
Oct 30
First Quarter

Today's Extremes

State Highs State Lows

Community

WunderPhotos

Upload Photos

1,758,255 photos uploaded!

WunderBlogs® & News

By Dr. Jeff Masters
Director of Meteorology, Weather Underground
By Kari Strenfel
Meteorologist, Weather Underground
By Christopher C. Burt
Weather Historian, Weather Underground
October 2, 2014
October 2, 2014
October 2, 2014

Nearby

Snow Depth

Station Depth Elevation
Blue Lakes 0 in 8000 ft
Leavitt Lake 1 in 9400 ft
Spratt Creek 1 in 6200 ft
Forestdale Creek 1 in 8029 ft
Horse Meadow 2 in 8631 ft

Earthquake Activity

City Distance Mag. Time & Date
South Dos Palos, California 102 miles 3.0 11:17 AM PDT
2014-10-01
Shandon, California 106 miles 2.9 5:34 PM PDT
2014-09-30
South Dos Palos, California 101 miles 2.7 3:08 PM PDT
2014-09-30
South Dos Palos, California 101 miles 2.5 9:18 PM PDT
2014-09-29
Minimum magnitude displayed is 2.5.

Coastal Water Temperatures

Place Temperature
No Stations Reporting

Nearby Weather Stations